sensor_id;sensor_type;location;lat;lon;timestamp;P1;durP1;ratioP1;P2;durP2;ratioP2
3747;SDS011;1889;50.058;8.688;2023-09-08T00:01:03;7.17;;;6.42;;
3747;SDS011;1889;50.058;8.688;2023-09-08T00:03:32;8.93;;;6.33;;
3747;SDS011;1889;50.058;8.688;2023-09-08T00:06:02;6.95;;;6.33;;
3747;SDS011;1889;50.058;8.688;2023-09-08T00:08:31;8.30;;;6.50;;
3747;SDS011;1889;50.058;8.688;2023-09-08T00:11:00;7.50;;;6.73;;
3747;SDS011;1889;50.058;8.688;2023-09-08T00:13:30;6.75;;;6.15;;
3747;SDS011;1889;50.058;8.688;2023-09-08T00:15:59;8.00;;;6.08;;
3747;SDS011;1889;50.058;8.688;2023-09-08T00:18:28;7.33;;;6.63;;
3747;SDS011;1889;50.058;8.688;2023-09-08T00:20:57;8.00;;;5.87;;
3747;SDS011;1889;50.058;8.688;2023-09-08T00:23:26;6.97;;;6.27;;
3747;SDS011;1889;50.058;8.688;2023-09-08T00:25:55;8.07;;;6.80;;
3747;SDS011;1889;50.058;8.688;2023-09-08T00:28:25;7.20;;;6.50;;
3747;SDS011;1889;50.058;8.688;2023-09-08T00:30:54;8.30;;;6.57;;
3747;SDS011;1889;50.058;8.688;2023-09-08T00:33:25;8.55;;;6.80;;
3747;SDS011;1889;50.058;8.688;2023-09-08T00:35:54;7.77;;;6.60;;
3747;SDS011;1889;50.058;8.688;2023-09-08T00:38:24;8.13;;;7.20;;
3747;SDS011;1889;50.058;8.688;2023-09-08T00:40:53;6.62;;;5.92;;
3747;SDS011;1889;50.058;8.688;2023-09-08T00:43:23;9.70;;;6.30;;
3747;SDS011;1889;50.058;8.688;2023-09-08T00:45:52;7.28;;;6.22;;
3747;SDS011;1889;50.058;8.688;2023-09-08T00:48:25;8.87;;;6.90;;
3747;SDS011;1889;50.058;8.688;2023-09-08T00:50:55;7.15;;;6.47;;
3747;SDS011;1889;50.058;8.688;2023-09-08T00:53:25;7.65;;;6.78;;
3747;SDS011;1889;50.058;8.688;2023-09-08T00:55:54;7.08;;;6.37;;
3747;SDS011;1889;50.058;8.688;2023-09-08T00:58:26;6.83;;;6.10;;
3747;SDS011;1889;50.058;8.688;2023-09-08T01:00:56;7.70;;;6.07;;
3747;SDS011;1889;50.058;8.688;2023-09-08T01:03:25;8.35;;;6.20;;
3747;SDS011;1889;50.058;8.688;2023-09-08T01:05:54;6.93;;;6.23;;
3747;SDS011;1889;50.058;8.688;2023-09-08T01:08:24;8.65;;;7.30;;
3747;SDS011;1889;50.058;8.688;2023-09-08T01:10:54;8.37;;;6.00;;
3747;SDS011;1889;50.058;8.688;2023-09-08T01:13:24;6.73;;;5.93;;
3747;SDS011;1889;50.058;8.688;2023-09-08T01:15:53;6.47;;;5.87;;
3747;SDS011;1889;50.058;8.688;2023-09-08T01:18:22;6.90;;;6.03;;
3747;SDS011;1889;50.058;8.688;2023-09-08T01:21:13;9.45;;;6.58;;
3747;SDS011;1889;50.058;8.688;2023-09-08T01:26:17;6.47;;;5.87;;
3747;SDS011;1889;50.058;8.688;2023-09-08T01:28:49;6.23;;;5.43;;
3747;SDS011;1889;50.058;8.688;2023-09-08T01:31:19;7.67;;;6.00;;
3747;SDS011;1889;50.058;8.688;2023-09-08T01:33:48;7.97;;;5.80;;
3747;SDS011;1889;50.058;8.688;2023-09-08T01:36:18;7.40;;;5.63;;
3747;SDS011;1889;50.058;8.688;2023-09-08T01:38:47;7.40;;;5.90;;
3747;SDS011;1889;50.058;8.688;2023-09-08T01:41:16;9.33;;;6.53;;
3747;SDS011;1889;50.058;8.688;2023-09-08T01:43:45;7.22;;;6.42;;
3747;SDS011;1889;50.058;8.688;2023-09-08T01:46:15;6.75;;;6.00;;
3747;SDS011;1889;50.058;8.688;2023-09-08T01:48:44;6.20;;;5.67;;
3747;SDS011;1889;50.058;8.688;2023-09-08T01:51:13;7.20;;;5.87;;
3747;SDS011;1889;50.058;8.688;2023-09-08T01:53:42;6.95;;;5.87;;
3747;SDS011;1889;50.058;8.688;2023-09-08T01:56:11;8.80;;;6.03;;
3747;SDS011;1889;50.058;8.688;2023-09-08T01:58:40;6.78;;;5.85;;
3747;SDS011;1889;50.058;8.688;2023-09-08T02:01:09;6.73;;;5.93;;
3747;SDS011;1889;50.058;8.688;2023-09-08T02:03:38;6.92;;;5.83;;
3747;SDS011;1889;50.058;8.688;2023-09-08T02:06:08;7.47;;;6.12;;
3747;SDS011;1889;50.058;8.688;2023-09-08T02:08:37;6.83;;;6.23;;
3747;SDS011;1889;50.058;8.688;2023-09-08T02:11:06;6.42;;;5.92;;
3747;SDS011;1889;50.058;8.688;2023-09-08T02:13:36;7.93;;;5.97;;
3747;SDS011;1889;50.058;8.688;2023-09-08T02:16:05;6.20;;;5.65;;
3747;SDS011;1889;50.058;8.688;2023-09-08T02:18:35;6.53;;;5.93;;
3747;SDS011;1889;50.058;8.688;2023-09-08T02:21:04;6.43;;;5.83;;
3747;SDS011;1889;50.058;8.688;2023-09-08T02:23:33;6.77;;;5.60;;
3747;SDS011;1889;50.058;8.688;2023-09-08T02:26:02;6.87;;;5.53;;
3747;SDS011;1889;50.058;8.688;2023-09-08T02:28:31;7.80;;;5.70;;
3747;SDS011;1889;50.058;8.688;2023-09-08T02:31:00;6.10;;;5.60;;
3747;SDS011;1889;50.058;8.688;2023-09-08T02:33:29;6.63;;;5.40;;
3747;SDS011;1889;50.058;8.688;2023-09-08T02:36:03;6.03;;;5.53;;
3747;SDS011;1889;50.058;8.688;2023-09-08T02:38:32;7.37;;;5.47;;
3747;SDS011;1889;50.058;8.688;2023-09-08T02:41:02;9.90;;;6.10;;
3747;SDS011;1889;50.058;8.688;2023-09-08T02:43:31;9.40;;;5.67;;
3747;SDS011;1889;50.058;8.688;2023-09-08T02:46:00;7.37;;;6.00;;
3747;SDS011;1889;50.058;8.688;2023-09-08T02:48:29;7.95;;;6.87;;
3747;SDS011;1889;50.058;8.688;2023-09-08T02:50:58;10.40;;;5.30;;
3747;SDS011;1889;50.058;8.688;2023-09-08T02:53:27;6.33;;;5.67;;
3747;SDS011;1889;50.058;8.688;2023-09-08T02:55:57;10.08;;;5.70;;
3747;SDS011;1889;50.058;8.688;2023-09-08T03:03:54;8.37;;;5.73;;
3747;SDS011;1889;50.058;8.688;2023-09-08T03:06:23;6.70;;;6.10;;
3747;SDS011;1889;50.058;8.688;2023-09-08T03:08:52;7.10;;;6.30;;
3747;SDS011;1889;50.058;8.688;2023-09-08T03:11:21;6.37;;;5.70;;
3747;SDS011;1889;50.058;8.688;2023-09-08T03:13:50;7.08;;;6.17;;
3747;SDS011;1889;50.058;8.688;2023-09-08T03:16:20;6.87;;;6.17;;
3747;SDS011;1889;50.058;8.688;2023-09-08T03:18:49;5.97;;;5.37;;
3747;SDS011;1889;50.058;8.688;2023-09-08T03:21:18;5.95;;;5.45;;
3747;SDS011;1889;50.058;8.688;2023-09-08T03:23:48;7.55;;;5.92;;
3747;SDS011;1889;50.058;8.688;2023-09-08T03:26:17;6.83;;;5.50;;
3747;SDS011;1889;50.058;8.688;2023-09-08T03:28:46;6.87;;;6.17;;
3747;SDS011;1889;50.058;8.688;2023-09-08T03:31:15;6.65;;;6.05;;
3747;SDS011;1889;50.058;8.688;2023-09-08T03:33:45;7.20;;;6.03;;
3747;SDS011;1889;50.058;8.688;2023-09-08T03:36:14;6.28;;;5.65;;
3747;SDS011;1889;50.058;8.688;2023-09-08T03:38:44;6.03;;;5.42;;
3747;SDS011;1889;50.058;8.688;2023-09-08T03:41:14;6.83;;;5.97;;
3747;SDS011;1889;50.058;8.688;2023-09-08T03:43:43;6.62;;;5.95;;
3747;SDS011;1889;50.058;8.688;2023-09-08T03:46:12;7.17;;;5.87;;
3747;SDS011;1889;50.058;8.688;2023-09-08T03:48:42;7.78;;;6.22;;
3747;SDS011;1889;50.058;8.688;2023-09-08T03:51:11;6.30;;;5.73;;
3747;SDS011;1889;50.058;8.688;2023-09-08T03:53:40;5.90;;;5.35;;
3747;SDS011;1889;50.058;8.688;2023-09-08T03:56:10;6.08;;;5.55;;
3747;SDS011;1889;50.058;8.688;2023-09-08T03:58:39;6.65;;;5.85;;
3747;SDS011;1889;50.058;8.688;2023-09-08T04:01:08;7.10;;;6.37;;
3747;SDS011;1889;50.058;8.688;2023-09-08T04:03:38;7.47;;;6.40;;
3747;SDS011;1889;50.058;8.688;2023-09-08T04:06:07;7.95;;;6.28;;
3747;SDS011;1889;50.058;8.688;2023-09-08T04:08:36;6.55;;;5.90;;
3747;SDS011;1889;50.058;8.688;2023-09-08T04:11:06;7.75;;;5.78;;
3747;SDS011;1889;50.058;8.688;2023-09-08T04:13:35;8.70;;;6.45;;
3747;SDS011;1889;50.058;8.688;2023-09-08T04:16:04;8.18;;;5.65;;
3747;SDS011;1889;50.058;8.688;2023-09-08T04:18:34;7.60;;;5.92;;
3747;SDS011;1889;50.058;8.688;2023-09-08T04:21:03;6.87;;;6.28;;
3747;SDS011;1889;50.058;8.688;2023-09-08T04:23:37;9.35;;;6.03;;
3747;SDS011;1889;50.058;8.688;2023-09-08T04:26:06;6.42;;;5.83;;
3747;SDS011;1889;50.058;8.688;2023-09-08T04:28:35;8.05;;;5.67;;
3747;SDS011;1889;50.058;8.688;2023-09-08T04:31:05;6.92;;;5.85;;
3747;SDS011;1889;50.058;8.688;2023-09-08T04:33:34;7.95;;;6.95;;
3747;SDS011;1889;50.058;8.688;2023-09-08T04:36:03;8.55;;;7.03;;
3747;SDS011;1889;50.058;8.688;2023-09-08T04:38:33;7.17;;;6.33;;
3747;SDS011;1889;50.058;8.688;2023-09-08T04:41:02;7.08;;;6.37;;
3747;SDS011;1889;50.058;8.688;2023-09-08T04:43:31;6.95;;;6.25;;
3747;SDS011;1889;50.058;8.688;2023-09-08T04:46:01;7.25;;;6.22;;
3747;SDS011;1889;50.058;8.688;2023-09-08T04:48:31;6.95;;;6.30;;
3747;SDS011;1889;50.058;8.688;2023-09-08T04:51:00;7.00;;;5.85;;
3747;SDS011;1889;50.058;8.688;2023-09-08T04:53:29;7.33;;;6.35;;
3747;SDS011;1889;50.058;8.688;2023-09-08T04:56:00;6.53;;;5.92;;
3747;SDS011;1889;50.058;8.688;2023-09-08T04:58:29;6.53;;;5.92;;
3747;SDS011;1889;50.058;8.688;2023-09-08T05:00:59;8.38;;;6.22;;
3747;SDS011;1889;50.058;8.688;2023-09-08T05:03:28;7.65;;;6.22;;
3747;SDS011;1889;50.058;8.688;2023-09-08T05:05:58;6.78;;;6.12;;
3747;SDS011;1889;50.058;8.688;2023-09-08T05:08:28;6.97;;;6.28;;
3747;SDS011;1889;50.058;8.688;2023-09-08T05:10:58;7.37;;;6.28;;
3747;SDS011;1889;50.058;8.688;2023-09-08T05:13:27;8.05;;;6.20;;
3747;SDS011;1889;50.058;8.688;2023-09-08T05:15:56;7.60;;;6.28;;
3747;SDS011;1889;50.058;8.688;2023-09-08T05:18:27;7.05;;;6.15;;
3747;SDS011;1889;50.058;8.688;2023-09-08T05:20:57;8.58;;;6.15;;
3747;SDS011;1889;50.058;8.688;2023-09-08T05:23:26;7.87;;;6.25;;
3747;SDS011;1889;50.058;8.688;2023-09-08T05:25:55;8.48;;;6.15;;
3747;SDS011;1889;50.058;8.688;2023-09-08T05:28:25;7.87;;;6.47;;
3747;SDS011;1889;50.058;8.688;2023-09-08T05:30:54;7.80;;;6.85;;
3747;SDS011;1889;50.058;8.688;2023-09-08T05:33:23;9.45;;;6.60;;
3747;SDS011;1889;50.058;8.688;2023-09-08T05:35:53;7.78;;;6.12;;
3747;SDS011;1889;50.058;8.688;2023-09-08T05:38:22;8.40;;;6.55;;
3747;SDS011;1889;50.058;8.688;2023-09-08T05:40:53;6.58;;;5.97;;
3747;SDS011;1889;50.058;8.688;2023-09-08T05:43:25;8.50;;;6.58;;
3747;SDS011;1889;50.058;8.688;2023-09-08T05:45:53;6.65;;;6.05;;
3747;SDS011;1889;50.058;8.688;2023-09-08T05:48:23;6.78;;;6.12;;
3747;SDS011;1889;50.058;8.688;2023-09-08T05:50:52;6.62;;;6.03;;
3747;SDS011;1889;50.058;8.688;2023-09-08T05:53:21;6.10;;;5.50;;
3747;SDS011;1889;50.058;8.688;2023-09-08T05:55:51;8.35;;;6.58;;
3747;SDS011;1889;50.058;8.688;2023-09-08T05:58:20;8.90;;;6.40;;
3747;SDS011;1889;50.058;8.688;2023-09-08T06:00:51;11.03;;;7.07;;
3747;SDS011;1889;50.058;8.688;2023-09-08T06:03:20;7.00;;;6.05;;
3747;SDS011;1889;50.058;8.688;2023-09-08T06:05:50;8.15;;;6.40;;
3747;SDS011;1889;50.058;8.688;2023-09-08T06:08:19;8.78;;;6.45;;
3747;SDS011;1889;50.058;8.688;2023-09-08T06:10:48;6.67;;;5.95;;
3747;SDS011;1889;50.058;8.688;2023-09-08T06:13:18;7.60;;;6.30;;
3747;SDS011;1889;50.058;8.688;2023-09-08T06:15:47;8.03;;;6.42;;
3747;SDS011;1889;50.058;8.688;2023-09-08T06:18:16;7.28;;;6.53;;
3747;SDS011;1889;50.058;8.688;2023-09-08T06:20:46;8.23;;;6.70;;
3747;SDS011;1889;50.058;8.688;2023-09-08T06:23:16;6.37;;;5.72;;
3747;SDS011;1889;50.058;8.688;2023-09-08T06:25:46;7.90;;;5.70;;
3747;SDS011;1889;50.058;8.688;2023-09-08T06:28:15;7.15;;;6.28;;
3747;SDS011;1889;50.058;8.688;2023-09-08T06:30:45;7.50;;;6.58;;
3747;SDS011;1889;50.058;8.688;2023-09-08T06:33:14;6.40;;;5.30;;
3747;SDS011;1889;50.058;8.688;2023-09-08T06:35:43;6.95;;;5.97;;
3747;SDS011;1889;50.058;8.688;2023-09-08T06:38:14;6.75;;;5.85;;
3747;SDS011;1889;50.058;8.688;2023-09-08T06:40:43;6.83;;;6.13;;
3747;SDS011;1889;50.058;8.688;2023-09-08T06:43:12;6.42;;;5.60;;
3747;SDS011;1889;50.058;8.688;2023-09-08T06:45:41;6.13;;;5.40;;
3747;SDS011;1889;50.058;8.688;2023-09-08T06:48:10;7.83;;;5.67;;
3747;SDS011;1889;50.058;8.688;2023-09-08T06:50:39;5.87;;;5.28;;
3747;SDS011;1889;50.058;8.688;2023-09-08T06:53:09;6.62;;;5.90;;
3747;SDS011;1889;50.058;8.688;2023-09-08T06:55:39;7.67;;;5.47;;
3747;SDS011;1889;50.058;8.688;2023-09-08T06:58:09;9.30;;;5.28;;
3747;SDS011;1889;50.058;8.688;2023-09-08T07:00:39;5.87;;;5.37;;
3747;SDS011;1889;50.058;8.688;2023-09-08T07:03:09;5.80;;;5.20;;
3747;SDS011;1889;50.058;8.688;2023-09-08T07:05:41;6.55;;;5.70;;
3747;SDS011;1889;50.058;8.688;2023-09-08T07:08:10;5.83;;;5.33;;
3747;SDS011;1889;50.058;8.688;2023-09-08T07:10:39;5.93;;;5.30;;
3747;SDS011;1889;50.058;8.688;2023-09-08T07:13:08;5.80;;;5.30;;
3747;SDS011;1889;50.058;8.688;2023-09-08T07:15:38;7.10;;;5.73;;
3747;SDS011;1889;50.058;8.688;2023-09-08T07:18:07;5.90;;;5.20;;
3747;SDS011;1889;50.058;8.688;2023-09-08T07:20:36;8.97;;;5.00;;
3747;SDS011;1889;50.058;8.688;2023-09-08T07:23:05;6.80;;;5.03;;
3747;SDS011;1889;50.058;8.688;2023-09-08T07:25:34;6.37;;;5.77;;
3747;SDS011;1889;50.058;8.688;2023-09-08T07:28:04;5.53;;;5.03;;
3747;SDS011;1889;50.058;8.688;2023-09-08T07:30:33;6.10;;;4.75;;
3747;SDS011;1889;50.058;8.688;2023-09-08T07:33:02;8.43;;;5.80;;
3747;SDS011;1889;50.058;8.688;2023-09-08T07:35:35;7.30;;;4.70;;
3747;SDS011;1889;50.058;8.688;2023-09-08T07:38:07;5.47;;;4.97;;
3747;SDS011;1889;50.058;8.688;2023-09-08T07:40:36;8.53;;;5.40;;
3747;SDS011;1889;50.058;8.688;2023-09-08T07:43:05;6.00;;;5.40;;
3747;SDS011;1889;50.058;8.688;2023-09-08T07:45:34;5.67;;;4.93;;
3747;SDS011;1889;50.058;8.688;2023-09-08T07:48:03;7.00;;;5.23;;
3747;SDS011;1889;50.058;8.688;2023-09-08T07:50:32;5.40;;;4.87;;
3747;SDS011;1889;50.058;8.688;2023-09-08T07:53:01;5.83;;;5.27;;
3747;SDS011;1889;50.058;8.688;2023-09-08T07:55:30;6.30;;;5.03;;
3747;SDS011;1889;50.058;8.688;2023-09-08T07:58:00;5.90;;;5.03;;
3747;SDS011;1889;50.058;8.688;2023-09-08T08:00:31;7.33;;;5.37;;
3747;SDS011;1889;50.058;8.688;2023-09-08T08:03:00;5.83;;;4.77;;
3747;SDS011;1889;50.058;8.688;2023-09-08T08:05:29;5.60;;;5.10;;
3747;SDS011;1889;50.058;8.688;2023-09-08T08:07:58;6.23;;;4.80;;
3747;SDS011;1889;50.058;8.688;2023-09-08T08:10:28;5.67;;;5.00;;
3747;SDS011;1889;50.058;8.688;2023-09-08T08:12:57;5.83;;;5.30;;
3747;SDS011;1889;50.058;8.688;2023-09-08T08:15:46;6.87;;;5.80;;
3747;SDS011;1889;50.058;8.688;2023-09-08T08:18:04;5.57;;;5.00;;
3747;SDS011;1889;50.058;8.688;2023-09-08T08:20:34;5.03;;;4.60;;
3747;SDS011;1889;50.058;8.688;2023-09-08T08:23:03;5.47;;;4.90;;
3747;SDS011;1889;50.058;8.688;2023-09-08T08:25:33;5.67;;;4.83;;
3747;SDS011;1889;50.058;8.688;2023-09-08T08:28:03;6.83;;;5.03;;
3747;SDS011;1889;50.058;8.688;2023-09-08T08:30:32;6.37;;;4.50;;
3747;SDS011;1889;50.058;8.688;2023-09-08T08:33:02;5.70;;;4.87;;
3747;SDS011;1889;50.058;8.688;2023-09-08T08:35:31;5.23;;;4.80;;
3747;SDS011;1889;50.058;8.688;2023-09-08T08:38:00;5.13;;;4.63;;
3747;SDS011;1889;50.058;8.688;2023-09-08T08:40:30;5.40;;;4.50;;
3747;SDS011;1889;50.058;8.688;2023-09-08T08:43:01;4.97;;;4.57;;
3747;SDS011;1889;50.058;8.688;2023-09-08T08:45:30;7.17;;;5.07;;
3747;SDS011;1889;50.058;8.688;2023-09-08T08:48:01;5.77;;;5.17;;
3747;SDS011;1889;50.058;8.688;2023-09-08T08:50:32;8.43;;;4.90;;
3747;SDS011;1889;50.058;8.688;2023-09-08T08:53:02;4.60;;;4.20;;
3747;SDS011;1889;50.058;8.688;2023-09-08T08:55:31;5.43;;;4.93;;
3747;SDS011;1889;50.058;8.688;2023-09-08T08:58:05;6.90;;;4.70;;
3747;SDS011;1889;50.058;8.688;2023-09-08T09:00:35;5.17;;;4.67;;
3747;SDS011;1889;50.058;8.688;2023-09-08T09:03:05;6.30;;;5.00;;
3747;SDS011;1889;50.058;8.688;2023-09-08T09:05:35;7.37;;;5.07;;
3747;SDS011;1889;50.058;8.688;2023-09-08T09:08:05;5.60;;;5.10;;
3747;SDS011;1889;50.058;8.688;2023-09-08T09:10:36;5.07;;;4.67;;
3747;SDS011;1889;50.058;8.688;2023-09-08T09:13:05;6.40;;;5.30;;
3747;SDS011;1889;50.058;8.688;2023-09-08T09:15:34;5.50;;;4.87;;
3747;SDS011;1889;50.058;8.688;2023-09-08T09:18:04;5.07;;;4.63;;
3747;SDS011;1889;50.058;8.688;2023-09-08T09:20:34;7.10;;;5.20;;
3747;SDS011;1889;50.058;8.688;2023-09-08T09:23:04;6.10;;;5.07;;
3747;SDS011;1889;50.058;8.688;2023-09-08T09:25:33;5.20;;;4.70;;
3747;SDS011;1889;50.058;8.688;2023-09-08T09:28:03;4.63;;;4.13;;
3747;SDS011;1889;50.058;8.688;2023-09-08T09:30:48;7.60;;;4.90;;
3747;SDS011;1889;50.058;8.688;2023-09-08T09:33:19;5.30;;;4.80;;
3747;SDS011;1889;50.058;8.688;2023-09-08T09:35:49;5.93;;;4.23;;
3747;SDS011;1889;50.058;8.688;2023-09-08T09:38:19;5.07;;;4.67;;
3747;SDS011;1889;50.058;8.688;2023-09-08T09:40:49;5.87;;;4.23;;
3747;SDS011;1889;50.058;8.688;2023-09-08T09:43:20;4.83;;;3.83;;
3747;SDS011;1889;50.058;8.688;2023-09-08T09:45:51;4.93;;;4.30;;
3747;SDS011;1889;50.058;8.688;2023-09-08T09:48:21;4.77;;;4.27;;
3747;SDS011;1889;50.058;8.688;2023-09-08T09:50:51;5.23;;;4.57;;
3747;SDS011;1889;50.058;8.688;2023-09-08T09:53:20;6.73;;;4.93;;
3747;SDS011;1889;50.058;8.688;2023-09-08T09:55:50;4.77;;;4.33;;
3747;SDS011;1889;50.058;8.688;2023-09-08T09:58:20;4.83;;;4.30;;
3747;SDS011;1889;50.058;8.688;2023-09-08T10:00:50;5.13;;;4.73;;
3747;SDS011;1889;50.058;8.688;2023-09-08T10:03:21;6.63;;;4.87;;
3747;SDS011;1889;50.058;8.688;2023-09-08T10:05:51;5.53;;;4.60;;
3747;SDS011;1889;50.058;8.688;2023-09-08T10:08:21;5.43;;;4.93;;
3747;SDS011;1889;50.058;8.688;2023-09-08T10:10:50;6.17;;;5.27;;
3747;SDS011;1889;50.058;8.688;2023-09-08T10:13:31;5.53;;;4.50;;
3747;SDS011;1889;50.058;8.688;2023-09-08T10:15:58;5.00;;;4.60;;
3747;SDS011;1889;50.058;8.688;2023-09-08T10:18:28;4.93;;;4.43;;
3747;SDS011;1889;50.058;8.688;2023-09-08T10:21:00;5.90;;;4.80;;
3747;SDS011;1889;50.058;8.688;2023-09-08T10:23:36;5.40;;;4.90;;
3747;SDS011;1889;50.058;8.688;2023-09-08T10:26:09;5.20;;;4.80;;
3747;SDS011;1889;50.058;8.688;2023-09-08T10:28:39;7.03;;;4.50;;
3747;SDS011;1889;50.058;8.688;2023-09-08T10:31:08;6.37;;;4.73;;
3747;SDS011;1889;50.058;8.688;2023-09-08T10:33:38;7.63;;;5.53;;
3747;SDS011;1889;50.058;8.688;2023-09-08T10:36:08;5.00;;;4.60;;
3747;SDS011;1889;50.058;8.688;2023-09-08T10:38:40;5.00;;;4.50;;
3747;SDS011;1889;50.058;8.688;2023-09-08T10:43:55;5.90;;;5.30;;
3747;SDS011;1889;50.058;8.688;2023-09-08T10:46:28;5.17;;;4.67;;
3747;SDS011;1889;50.058;8.688;2023-09-08T10:49:08;8.33;;;4.93;;
3747;SDS011;1889;50.058;8.688;2023-09-08T10:51:39;5.03;;;4.50;;
3747;SDS011;1889;50.058;8.688;2023-09-08T10:54:08;5.07;;;4.60;;
3747;SDS011;1889;50.058;8.688;2023-09-08T10:56:54;4.90;;;4.50;;
3747;SDS011;1889;50.058;8.688;2023-09-08T10:59:34;5.90;;;5.40;;
3747;SDS011;1889;50.058;8.688;2023-09-08T11:02:03;5.20;;;4.80;;
3747;SDS011;1889;50.058;8.688;2023-09-08T11:04:33;5.97;;;4.47;;
3747;SDS011;1889;50.058;8.688;2023-09-08T11:07:04;5.17;;;4.73;;
3747;SDS011;1889;50.058;8.688;2023-09-08T11:09:35;5.37;;;3.90;;
3747;SDS011;1889;50.058;8.688;2023-09-08T11:12:04;6.40;;;4.23;;
3747;SDS011;1889;50.058;8.688;2023-09-08T11:14:35;4.57;;;4.03;;
3747;SDS011;1889;50.058;8.688;2023-09-08T11:17:04;5.83;;;4.87;;
3747;SDS011;1889;50.058;8.688;2023-09-08T11:19:47;4.87;;;4.47;;
3747;SDS011;1889;50.058;8.688;2023-09-08T11:22:16;4.57;;;4.23;;
3747;SDS011;1889;50.058;8.688;2023-09-08T11:24:46;4.80;;;4.40;;
3747;SDS011;1889;50.058;8.688;2023-09-08T11:27:16;4.90;;;4.50;;
3747;SDS011;1889;50.058;8.688;2023-09-08T11:29:45;4.63;;;4.23;;
3747;SDS011;1889;50.058;8.688;2023-09-08T11:32:15;4.97;;;4.37;;
3747;SDS011;1889;50.058;8.688;2023-09-08T11:34:44;4.40;;;4.00;;
3747;SDS011;1889;50.058;8.688;2023-09-08T11:37:14;4.87;;;4.37;;
3747;SDS011;1889;50.058;8.688;2023-09-08T11:39:45;4.87;;;4.43;;
3747;SDS011;1889;50.058;8.688;2023-09-08T11:42:15;4.73;;;4.33;;
3747;SDS011;1889;50.058;8.688;2023-09-08T11:44:44;4.53;;;4.13;;
3747;SDS011;1889;50.058;8.688;2023-09-08T11:47:13;5.93;;;4.40;;
3747;SDS011;1889;50.058;8.688;2023-09-08T11:49:43;4.87;;;4.20;;
3747;SDS011;1889;50.058;8.688;2023-09-08T11:52:13;8.33;;;4.30;;
3747;SDS011;1889;50.058;8.688;2023-09-08T11:54:42;4.40;;;4.00;;
3747;SDS011;1889;50.058;8.688;2023-09-08T11:57:12;5.77;;;4.53;;
3747;SDS011;1889;50.058;8.688;2023-09-08T11:59:41;5.77;;;4.67;;
3747;SDS011;1889;50.058;8.688;2023-09-08T12:02:12;6.27;;;4.47;;
3747;SDS011;1889;50.058;8.688;2023-09-08T12:04:42;5.73;;;4.90;;
3747;SDS011;1889;50.058;8.688;2023-09-08T12:07:13;7.50;;;4.60;;
3747;SDS011;1889;50.058;8.688;2023-09-08T12:09:43;4.40;;;4.07;;
3747;SDS011;1889;50.058;8.688;2023-09-08T12:12:14;5.37;;;4.27;;
3747;SDS011;1889;50.058;8.688;2023-09-08T12:14:43;4.50;;;3.73;;
3747;SDS011;1889;50.058;8.688;2023-09-08T12:17:12;6.13;;;4.10;;
3747;SDS011;1889;50.058;8.688;2023-09-08T12:19:42;4.23;;;3.93;;
3747;SDS011;1889;50.058;8.688;2023-09-08T12:22:12;5.67;;;3.97;;
3747;SDS011;1889;50.058;8.688;2023-09-08T12:24:45;5.77;;;4.50;;
3747;SDS011;1889;50.058;8.688;2023-09-08T12:27:26;4.07;;;3.70;;
3747;SDS011;1889;50.058;8.688;2023-09-08T12:29:56;4.07;;;3.77;;
3747;SDS011;1889;50.058;8.688;2023-09-08T12:32:31;6.40;;;3.90;;
3747;SDS011;1889;50.058;8.688;2023-09-08T12:35:03;4.93;;;4.33;;
3747;SDS011;1889;50.058;8.688;2023-09-08T12:37:33;4.43;;;4.00;;
3747;SDS011;1889;50.058;8.688;2023-09-08T12:40:03;5.27;;;4.30;;
3747;SDS011;1889;50.058;8.688;2023-09-08T12:42:33;4.37;;;3.63;;
3747;SDS011;1889;50.058;8.688;2023-09-08T12:45:02;5.93;;;3.80;;
3747;SDS011;1889;50.058;8.688;2023-09-08T12:47:32;5.30;;;4.80;;
3747;SDS011;1889;50.058;8.688;2023-09-08T12:50:03;4.77;;;4.17;;
3747;SDS011;1889;50.058;8.688;2023-09-08T12:52:32;4.37;;;3.97;;
3747;SDS011;1889;50.058;8.688;2023-09-08T12:55:01;5.10;;;3.93;;
3747;SDS011;1889;50.058;8.688;2023-09-08T12:57:30;4.70;;;4.30;;
3747;SDS011;1889;50.058;8.688;2023-09-08T13:00:00;7.33;;;4.13;;
3747;SDS011;1889;50.058;8.688;2023-09-08T13:02:29;5.73;;;3.90;;
3747;SDS011;1889;50.058;8.688;2023-09-08T13:04:58;4.73;;;4.10;;
3747;SDS011;1889;50.058;8.688;2023-09-08T13:07:27;5.60;;;4.03;;
3747;SDS011;1889;50.058;8.688;2023-09-08T13:09:57;5.03;;;4.53;;
3747;SDS011;1889;50.058;8.688;2023-09-08T13:12:26;4.43;;;4.03;;
3747;SDS011;1889;50.058;8.688;2023-09-08T13:14:55;4.93;;;3.77;;
3747;SDS011;1889;50.058;8.688;2023-09-08T13:17:24;4.03;;;3.70;;
3747;SDS011;1889;50.058;8.688;2023-09-08T13:19:53;4.93;;;4.37;;
3747;SDS011;1889;50.058;8.688;2023-09-08T13:22:22;4.30;;;3.97;;
3747;SDS011;1889;50.058;8.688;2023-09-08T13:24:51;4.87;;;4.37;;
3747;SDS011;1889;50.058;8.688;2023-09-08T13:27:22;4.23;;;3.83;;
3747;SDS011;1889;50.058;8.688;2023-09-08T13:29:53;3.63;;;3.37;;
3747;SDS011;1889;50.058;8.688;2023-09-08T13:32:21;5.27;;;3.50;;
3747;SDS011;1889;50.058;8.688;2023-09-08T13:34:52;3.73;;;3.43;;
3747;SDS011;1889;50.058;8.688;2023-09-08T13:37:27;4.57;;;4.00;;
3747;SDS011;1889;50.058;8.688;2023-09-08T13:39:58;4.23;;;3.87;;
3747;SDS011;1889;50.058;8.688;2023-09-08T13:42:27;4.67;;;4.27;;
3747;SDS011;1889;50.058;8.688;2023-09-08T13:44:56;4.67;;;4.10;;
3747;SDS011;1889;50.058;8.688;2023-09-08T13:47:25;7.23;;;6.53;;
3747;SDS011;1889;50.058;8.688;2023-09-08T13:49:54;4.90;;;4.40;;
3747;SDS011;1889;50.058;8.688;2023-09-08T13:52:23;6.37;;;3.77;;
3747;SDS011;1889;50.058;8.688;2023-09-08T13:54:53;6.33;;;4.13;;
3747;SDS011;1889;50.058;8.688;2023-09-08T13:57:22;4.20;;;3.90;;
3747;SDS011;1889;50.058;8.688;2023-09-08T13:59:52;4.83;;;4.23;;
3747;SDS011;1889;50.058;8.688;2023-09-08T14:02:21;4.47;;;4.07;;
3747;SDS011;1889;50.058;8.688;2023-09-08T14:04:51;4.83;;;4.10;;
3747;SDS011;1889;50.058;8.688;2023-09-08T14:07:20;5.40;;;4.90;;
3747;SDS011;1889;50.058;8.688;2023-09-08T14:09:49;4.80;;;4.17;;
3747;SDS011;1889;50.058;8.688;2023-09-08T14:12:18;4.33;;;3.93;;
3747;SDS011;1889;50.058;8.688;2023-09-08T14:14:47;6.57;;;4.47;;
3747;SDS011;1889;50.058;8.688;2023-09-08T14:17:16;5.73;;;5.23;;
3747;SDS011;1889;50.058;8.688;2023-09-08T14:19:45;5.00;;;4.03;;
3747;SDS011;1889;50.058;8.688;2023-09-08T14:22:14;6.47;;;4.40;;
3747;SDS011;1889;50.058;8.688;2023-09-08T14:24:43;5.27;;;4.40;;
3747;SDS011;1889;50.058;8.688;2023-09-08T14:27:12;4.57;;;4.10;;
3747;SDS011;1889;50.058;8.688;2023-09-08T14:29:41;4.90;;;4.50;;
3747;SDS011;1889;50.058;8.688;2023-09-08T14:32:10;5.87;;;4.37;;
3747;SDS011;1889;50.058;8.688;2023-09-08T14:34:39;4.90;;;4.30;;
3747;SDS011;1889;50.058;8.688;2023-09-08T14:37:08;5.87;;;4.30;;
3747;SDS011;1889;50.058;8.688;2023-09-08T14:39:37;5.03;;;4.63;;
3747;SDS011;1889;50.058;8.688;2023-09-08T14:42:06;5.37;;;4.20;;
3747;SDS011;1889;50.058;8.688;2023-09-08T14:44:36;4.57;;;4.10;;
3747;SDS011;1889;50.058;8.688;2023-09-08T14:47:05;6.63;;;4.50;;
3747;SDS011;1889;50.058;8.688;2023-09-08T14:49:35;5.30;;;4.20;;
3747;SDS011;1889;50.058;8.688;2023-09-08T14:52:04;4.70;;;4.30;;
3747;SDS011;1889;50.058;8.688;2023-09-08T14:54:33;4.73;;;4.33;;
3747;SDS011;1889;50.058;8.688;2023-09-08T14:57:03;6.20;;;4.80;;
3747;SDS011;1889;50.058;8.688;2023-09-08T14:59:32;5.70;;;5.13;;
3747;SDS011;1889;50.058;8.688;2023-09-08T15:02:01;4.30;;;3.87;;
3747;SDS011;1889;50.058;8.688;2023-09-08T15:04:31;4.87;;;4.47;;
3747;SDS011;1889;50.058;8.688;2023-09-08T15:07:00;4.17;;;3.87;;
3747;SDS011;1889;50.058;8.688;2023-09-08T15:09:29;4.83;;;3.67;;
3747;SDS011;1889;50.058;8.688;2023-09-08T15:11:58;5.40;;;4.03;;
3747;SDS011;1889;50.058;8.688;2023-09-08T15:14:27;5.30;;;4.90;;
3747;SDS011;1889;50.058;8.688;2023-09-08T15:16:56;4.63;;;4.27;;
3747;SDS011;1889;50.058;8.688;2023-09-08T15:19:25;4.83;;;4.43;;
3747;SDS011;1889;50.058;8.688;2023-09-08T15:21:54;6.73;;;4.43;;
3747;SDS011;1889;50.058;8.688;2023-09-08T15:24:23;4.40;;;4.00;;
3747;SDS011;1889;50.058;8.688;2023-09-08T15:26:52;6.00;;;4.70;;
3747;SDS011;1889;50.058;8.688;2023-09-08T15:29:21;4.43;;;4.10;;
3747;SDS011;1889;50.058;8.688;2023-09-08T15:31:50;4.63;;;4.17;;
3747;SDS011;1889;50.058;8.688;2023-09-08T15:34:19;4.93;;;4.50;;
3747;SDS011;1889;50.058;8.688;2023-09-08T15:36:48;5.03;;;4.60;;
3747;SDS011;1889;50.058;8.688;2023-09-08T15:39:18;6.00;;;4.17;;
3747;SDS011;1889;50.058;8.688;2023-09-08T15:41:47;4.23;;;3.90;;